sensor_id;sensor_type;location;lat;lon;timestamp;temperature;humidity
23083;DHT22;11709;52.420;10.538;2022-08-21T00:02:48;17.70;99.90
23083;DHT22;11709;52.420;10.538;2022-08-21T00:06:51;17.50;99.90
23083;DHT22;11709;52.420;10.538;2022-08-21T00:10:54;17.40;99.90
23083;DHT22;11709;52.420;10.538;2022-08-21T00:14:58;17.30;99.90
23083;DHT22;11709;52.420;10.538;2022-08-21T00:19:00;17.20;99.90
23083;DHT22;11709;52.420;10.538;2022-08-21T00:23:03;17.20;99.90
23083;DHT22;11709;52.420;10.538;2022-08-21T00:27:06;17.10;99.90
23083;DHT22;11709;52.420;10.538;2022-08-21T00:31:08;17.10;99.90
23083;DHT22;11709;52.420;10.538;2022-08-21T00:35:16;17.00;99.90
23083;DHT22;11709;52.420;10.538;2022-08-21T00:39:19;16.80;99.90
23083;DHT22;11709;52.420;10.538;2022-08-21T00:43:28;16.70;99.90
23083;DHT22;11709;52.420;10.538;2022-08-21T00:47:31;16.60;99.90
23083;DHT22;11709;52.420;10.538;2022-08-21T00:51:42;16.50;99.90
23083;DHT22;11709;52.420;10.538;2022-08-21T00:55:39;16.40;99.90
23083;DHT22;11709;52.420;10.538;2022-08-21T00:59:45;16.20;99.90
23083;DHT22;11709;52.420;10.538;2022-08-21T01:03:49;16.20;99.90
23083;DHT22;11709;52.420;10.538;2022-08-21T01:07:52;16.10;99.90
23083;DHT22;11709;52.420;10.538;2022-08-21T01:11:54;16.10;99.90
23083;DHT22;11709;52.420;10.538;2022-08-21T01:15:59;16.00;99.90
23083;DHT22;11709;52.420;10.538;2022-08-21T01:20:05;15.90;99.90
23083;DHT22;11709;52.420;10.538;2022-08-21T01:24:08;15.90;99.90
23083;DHT22;11709;52.420;10.538;2022-08-21T01:28:13;15.70;99.90
23083;DHT22;11709;52.420;10.538;2022-08-21T01:32:17;15.60;99.90
23083;DHT22;11709;52.420;10.538;2022-08-21T01:36:21;15.40;99.90
23083;DHT22;11709;52.420;10.538;2022-08-21T01:40:23;15.40;99.90
23083;DHT22;11709;52.420;10.538;2022-08-21T01:44:26;15.40;99.90
23083;DHT22;11709;52.420;10.538;2022-08-21T01:48:29;15.30;99.90
23083;DHT22;11709;52.420;10.538;2022-08-21T01:52:32;15.20;99.90
23083;DHT22;11709;52.420;10.538;2022-08-21T01:56:44;15.20;99.90
23083;DHT22;11709;52.420;10.538;2022-08-21T02:00:43;15.20;99.90
23083;DHT22;11709;52.420;10.538;2022-08-21T02:04:46;15.10;99.90
23083;DHT22;11709;52.420;10.538;2022-08-21T02:08:48;15.00;99.90
23083;DHT22;11709;52.420;10.538;2022-08-21T02:12:52;14.90;99.90
23083;DHT22;11709;52.420;10.538;2022-08-21T02:16:54;14.90;99.90
23083;DHT22;11709;52.420;10.538;2022-08-21T02:20:57;14.90;99.90
23083;DHT22;11709;52.420;10.538;2022-08-21T02:25:00;14.80;99.90
23083;DHT22;11709;52.420;10.538;2022-08-21T02:29:03;14.80;99.90
23083;DHT22;11709;52.420;10.538;2022-08-21T02:33:07;14.80;99.90
23083;DHT22;11709;52.420;10.538;2022-08-21T02:37:12;14.70;99.90
23083;DHT22;11709;52.420;10.538;2022-08-21T02:41:17;14.60;99.90
23083;DHT22;11709;52.420;10.538;2022-08-21T02:45:20;14.50;99.90
23083;DHT22;11709;52.420;10.538;2022-08-21T02:49:22;14.30;99.90
23083;DHT22;11709;52.420;10.538;2022-08-21T02:53:26;14.30;99.90
23083;DHT22;11709;52.420;10.538;2022-08-21T02:57:28;14.20;99.90
23083;DHT22;11709;52.420;10.538;2022-08-21T03:01:32;14.10;99.90
23083;DHT22;11709;52.420;10.538;2022-08-21T03:05:36;14.10;99.90
23083;DHT22;11709;52.420;10.538;2022-08-21T03:09:39;14.00;99.90
23083;DHT22;11709;52.420;10.538;2022-08-21T03:13:42;13.90;99.90
23083;DHT22;11709;52.420;10.538;2022-08-21T03:17:45;13.90;99.90
23083;DHT22;11709;52.420;10.538;2022-08-21T03:21:48;13.80;99.90
23083;DHT22;11709;52.420;10.538;2022-08-21T03:25:51;13.80;99.90
23083;DHT22;11709;52.420;10.538;2022-08-21T03:29:54;13.80;99.90
23083;DHT22;11709;52.420;10.538;2022-08-21T03:33:57;13.60;99.90
23083;DHT22;11709;52.420;10.538;2022-08-21T03:38:00;13.60;99.90
23083;DHT22;11709;52.420;10.538;2022-08-21T03:42:03;13.70;99.90
23083;DHT22;11709;52.420;10.538;2022-08-21T03:46:06;13.70;99.90
23083;DHT22;11709;52.420;10.538;2022-08-21T03:50:09;13.60;99.90
23083;DHT22;11709;52.420;10.538;2022-08-21T03:54:12;13.60;99.90
23083;DHT22;11709;52.420;10.538;2022-08-21T03:58:16;13.50;99.90
23083;DHT22;11709;52.420;10.538;2022-08-21T04:02:21;13.30;99.90
23083;DHT22;11709;52.420;10.538;2022-08-21T04:06:24;13.40;99.90
23083;DHT22;11709;52.420;10.538;2022-08-21T04:10:29;13.40;99.90
23083;DHT22;11709;52.420;10.538;2022-08-21T04:14:32;13.30;99.90
23083;DHT22;11709;52.420;10.538;2022-08-21T04:18:34;13.40;99.90
23083;DHT22;11709;52.420;10.538;2022-08-21T04:22:37;13.30;99.90
23083;DHT22;11709;52.420;10.538;2022-08-21T04:26:39;13.30;99.90
23083;DHT22;11709;52.420;10.538;2022-08-21T04:30:42;13.20;99.90
23083;DHT22;11709;52.420;10.538;2022-08-21T04:34:44;13.30;99.90
23083;DHT22;11709;52.420;10.538;2022-08-21T04:38:47;13.20;99.90
23083;DHT22;11709;52.420;10.538;2022-08-21T04:42:52;13.10;99.90
23083;DHT22;11709;52.420;10.538;2022-08-21T04:46:55;13.10;99.90
23083;DHT22;11709;52.420;10.538;2022-08-21T04:55:06;13.00;99.90
23083;DHT22;11709;52.420;10.538;2022-08-21T04:59:22;13.10;99.90
23083;DHT22;11709;52.420;10.538;2022-08-21T05:03:20;13.00;99.90
23083;DHT22;11709;52.420;10.538;2022-08-21T05:07:26;13.00;99.90
23083;DHT22;11709;52.420;10.538;2022-08-21T05:11:30;13.10;99.90
23083;DHT22;11709;52.420;10.538;2022-08-21T05:15:33;13.10;99.90
23083;DHT22;11709;52.420;10.538;2022-08-21T05:19:36;13.20;99.90
23083;DHT22;11709;52.420;10.538;2022-08-21T05:23:38;13.40;99.90
23083;DHT22;11709;52.420;10.538;2022-08-21T05:27:41;13.60;99.90
23083;DHT22;11709;52.420;10.538;2022-08-21T05:31:44;13.80;99.90
23083;DHT22;11709;52.420;10.538;2022-08-21T05:35:50;13.90;99.90
23083;DHT22;11709;52.420;10.538;2022-08-21T05:39:53;14.00;99.90
23083;DHT22;11709;52.420;10.538;2022-08-21T05:43:56;14.10;99.90
23083;DHT22;11709;52.420;10.538;2022-08-21T05:48:11;14.20;99.90
23083;DHT22;11709;52.420;10.538;2022-08-21T05:52:10;14.40;99.90
23083;DHT22;11709;52.420;10.538;2022-08-21T05:56:13;14.50;99.90
23083;DHT22;11709;52.420;10.538;2022-08-21T06:00:15;14.70;99.90
23083;DHT22;11709;52.420;10.538;2022-08-21T06:04:18;15.00;99.90
23083;DHT22;11709;52.420;10.538;2022-08-21T06:08:21;15.10;99.90
23083;DHT22;11709;52.420;10.538;2022-08-21T06:12:24;15.30;99.90
23083;DHT22;11709;52.420;10.538;2022-08-21T06:16:27;15.40;99.90
23083;DHT22;11709;52.420;10.538;2022-08-21T06:20:30;15.60;99.90
23083;DHT22;11709;52.420;10.538;2022-08-21T06:24:33;15.80;99.90
23083;DHT22;11709;52.420;10.538;2022-08-21T06:28:37;16.00;99.90
23083;DHT22;11709;52.420;10.538;2022-08-21T06:32:40;16.30;99.90
23083;DHT22;11709;52.420;10.538;2022-08-21T06:36:42;16.50;99.90
23083;DHT22;11709;52.420;10.538;2022-08-21T06:40:45;16.60;99.90
23083;DHT22;11709;52.420;10.538;2022-08-21T06:44:47;16.80;99.90
23083;DHT22;11709;52.420;10.538;2022-08-21T06:48:50;17.00;99.90
23083;DHT22;11709;52.420;10.538;2022-08-21T06:53:00;17.20;99.90
23083;DHT22;11709;52.420;10.538;2022-08-21T06:57:03;17.40;99.90
23083;DHT22;11709;52.420;10.538;2022-08-21T07:01:06;17.60;99.90
23083;DHT22;11709;52.420;10.538;2022-08-21T07:05:08;17.80;99.90
23083;DHT22;11709;52.420;10.538;2022-08-21T07:09:11;18.10;99.90
23083;DHT22;11709;52.420;10.538;2022-08-21T07:13:14;18.30;99.90
23083;DHT22;11709;52.420;10.538;2022-08-21T07:17:17;18.50;99.90
23083;DHT22;11709;52.420;10.538;2022-08-21T07:21:20;18.60;99.90
23083;DHT22;11709;52.420;10.538;2022-08-21T07:25:22;18.80;99.90
23083;DHT22;11709;52.420;10.538;2022-08-21T07:29:25;18.90;99.90
23083;DHT22;11709;52.420;10.538;2022-08-21T07:33:30;19.10;99.90
23083;DHT22;11709;52.420;10.538;2022-08-21T07:37:32;19.30;99.90
23083;DHT22;11709;52.420;10.538;2022-08-21T07:41:35;19.50;99.90
23083;DHT22;11709;52.420;10.538;2022-08-21T07:45:38;19.70;99.90
23083;DHT22;11709;52.420;10.538;2022-08-21T07:49:41;19.80;99.90
23083;DHT22;11709;52.420;10.538;2022-08-21T07:53:48;19.90;99.90
23083;DHT22;11709;52.420;10.538;2022-08-21T07:57:51;20.00;99.90
23083;DHT22;11709;52.420;10.538;2022-08-21T08:01:53;20.10;99.90
23083;DHT22;11709;52.420;10.538;2022-08-21T08:05:57;20.50;99.90
23083;DHT22;11709;52.420;10.538;2022-08-21T08:09:59;20.80;99.90
23083;DHT22;11709;52.420;10.538;2022-08-21T08:14:02;20.80;99.90
23083;DHT22;11709;52.420;10.538;2022-08-21T08:18:05;21.00;99.90
23083;DHT22;11709;52.420;10.538;2022-08-21T08:22:20;21.00;99.90
23083;DHT22;11709;52.420;10.538;2022-08-21T08:26:20;20.90;99.90
23083;DHT22;11709;52.420;10.538;2022-08-21T08:30:22;20.80;99.90
23083;DHT22;11709;52.420;10.538;2022-08-21T08:34:25;20.80;99.90
23083;DHT22;11709;52.420;10.538;2022-08-21T08:38:28;20.90;99.90
23083;DHT22;11709;52.420;10.538;2022-08-21T08:42:33;21.00;99.90
23083;DHT22;11709;52.420;10.538;2022-08-21T08:46:38;21.10;99.90
23083;DHT22;11709;52.420;10.538;2022-08-21T08:50:52;21.30;99.90
23083;DHT22;11709;52.420;10.538;2022-08-21T08:55:06;21.50;99.90
23083;DHT22;11709;52.420;10.538;2022-08-21T08:59:15;21.50;99.90
23083;DHT22;11709;52.420;10.538;2022-08-21T09:03:13;21.40;99.90
23083;DHT22;11709;52.420;10.538;2022-08-21T09:11:56;21.50;99.90
23083;DHT22;11709;52.420;10.538;2022-08-21T09:16:05;22.00;99.90
23083;DHT22;11709;52.420;10.538;2022-08-21T09:20:19;22.50;99.90
23083;DHT22;11709;52.420;10.538;2022-08-21T09:24:41;22.90;99.90
23083;DHT22;11709;52.420;10.538;2022-08-21T09:28:42;23.40;99.90
23083;DHT22;11709;52.420;10.538;2022-08-21T09:32:45;23.70;99.90
23083;DHT22;11709;52.420;10.538;2022-08-21T09:36:49;23.90;99.90
23083;DHT22;11709;52.420;10.538;2022-08-21T09:40:58;24.20;99.90
23083;DHT22;11709;52.420;10.538;2022-08-21T09:45:10;24.40;99.90
23083;DHT22;11709;52.420;10.538;2022-08-21T09:49:25;24.60;99.90
23083;DHT22;11709;52.420;10.538;2022-08-21T09:53:27;24.60;99.90
23083;DHT22;11709;52.420;10.538;2022-08-21T09:57:31;25.00;99.90
23083;DHT22;11709;52.420;10.538;2022-08-21T10:01:42;25.30;99.90
23083;DHT22;11709;52.420;10.538;2022-08-21T10:06:03;25.50;99.90
23083;DHT22;11709;52.420;10.538;2022-08-21T10:10:17;25.90;99.90
23083;DHT22;11709;52.420;10.538;2022-08-21T10:18:46;26.40;99.90
23083;DHT22;11709;52.420;10.538;2022-08-21T10:31:22;27.40;99.90
23083;DHT22;11709;52.420;10.538;2022-08-21T10:35:30;27.20;99.90
23083;DHT22;11709;52.420;10.538;2022-08-21T10:43:59;28.40;99.90
23083;DHT22;11709;52.420;10.538;2022-08-21T10:48:05;28.40;99.90
23083;DHT22;11709;52.420;10.538;2022-08-21T10:56:34;27.30;99.90
23083;DHT22;11709;52.420;10.538;2022-08-21T11:00:46;27.10;99.90
23083;DHT22;11709;52.420;10.538;2022-08-21T11:09:06;27.80;97.20
23083;DHT22;11709;52.420;10.538;2022-08-21T11:14:17;27.60;97.50
23083;DHT22;11709;52.420;10.538;2022-08-21T11:17:34;28.00;97.00
23083;DHT22;11709;52.420;10.538;2022-08-21T11:21:42;28.70;94.20
23083;DHT22;11709;52.420;10.538;2022-08-21T11:25:47;28.40;92.10
23083;DHT22;11709;52.420;10.538;2022-08-21T11:29:57;28.90;89.40
23083;DHT22;11709;52.420;10.538;2022-08-21T11:34:12;29.10;86.80
23083;DHT22;11709;52.420;10.538;2022-08-21T11:38:27;29.60;83.30
23083;DHT22;11709;52.420;10.538;2022-08-21T11:42:50;30.10;77.30
23083;DHT22;11709;52.420;10.538;2022-08-21T11:47:15;30.90;73.70
23083;DHT22;11709;52.420;10.538;2022-08-21T11:51:21;31.20;72.30
23083;DHT22;11709;52.420;10.538;2022-08-21T11:55:30;31.40;69.80
23083;DHT22;11709;52.420;10.538;2022-08-21T11:59:44;31.40;67.90
23083;DHT22;11709;52.420;10.538;2022-08-21T12:04:08;31.30;67.60
23083;DHT22;11709;52.420;10.538;2022-08-21T12:12:21;31.20;62.50
23083;DHT22;11709;52.420;10.538;2022-08-21T12:16:28;30.90;63.00
23083;DHT22;11709;52.420;10.538;2022-08-21T12:28:30;32.10;58.60
23083;DHT22;11709;52.420;10.538;2022-08-21T12:36:59;32.70;58.30
23083;DHT22;11709;52.420;10.538;2022-08-21T12:41:07;32.00;57.30
23083;DHT22;11709;52.420;10.538;2022-08-21T12:46:00;30.20;60.30
23083;DHT22;11709;52.420;10.538;2022-08-21T12:49:51;29.60;63.40
23083;DHT22;11709;52.420;10.538;2022-08-21T12:53:50;29.70;63.20
23083;DHT22;11709;52.420;10.538;2022-08-21T12:57:53;29.70;62.60
23083;DHT22;11709;52.420;10.538;2022-08-21T13:01:58;29.00;64.00
23083;DHT22;11709;52.420;10.538;2022-08-21T13:06:03;28.70;65.30
23083;DHT22;11709;52.420;10.538;2022-08-21T13:14:44;28.50;64.90
23083;DHT22;11709;52.420;10.538;2022-08-21T13:18:54;27.70;67.50
23083;DHT22;11709;52.420;10.538;2022-08-21T13:22:57;27.50;69.70
23083;DHT22;11709;52.420;10.538;2022-08-21T13:27:00;27.70;70.10
23083;DHT22;11709;52.420;10.538;2022-08-21T13:31:06;27.60;68.80
23083;DHT22;11709;52.420;10.538;2022-08-21T13:35:16;27.60;70.00
23083;DHT22;11709;52.420;10.538;2022-08-21T13:39:16;28.90;67.50
23083;DHT22;11709;52.420;10.538;2022-08-21T13:43:20;29.60;64.80
23083;DHT22;11709;52.420;10.538;2022-08-21T13:47:23;30.50;63.50
23083;DHT22;11709;52.420;10.538;2022-08-21T13:51:26;30.90;60.30
23083;DHT22;11709;52.420;10.538;2022-08-21T13:55:42;30.10;60.20
23083;DHT22;11709;52.420;10.538;2022-08-21T13:59:46;29.40;60.50
23083;DHT22;11709;52.420;10.538;2022-08-21T14:03:50;29.10;60.90
23083;DHT22;11709;52.420;10.538;2022-08-21T14:08:00;28.80;62.90
23083;DHT22;11709;52.420;10.538;2022-08-21T14:12:13;28.80;62.70
23083;DHT22;11709;52.420;10.538;2022-08-21T14:16:20;29.80;62.20
23083;DHT22;11709;52.420;10.538;2022-08-21T14:20:37;29.90;59.70
23083;DHT22;11709;52.420;10.538;2022-08-21T14:24:39;30.70;60.60
23083;DHT22;11709;52.420;10.538;2022-08-21T14:28:42;31.80;56.30
23083;DHT22;11709;52.420;10.538;2022-08-21T14:32:45;32.30;54.90
23083;DHT22;11709;52.420;10.538;2022-08-21T14:36:48;31.40;55.50
23083;DHT22;11709;52.420;10.538;2022-08-21T14:40:57;31.20;57.00
23083;DHT22;11709;52.420;10.538;2022-08-21T14:45:00;30.80;56.30
23083;DHT22;11709;52.420;10.538;2022-08-21T14:49:04;30.90;55.50
23083;DHT22;11709;52.420;10.538;2022-08-21T14:53:07;30.20;57.60
23083;DHT22;11709;52.420;10.538;2022-08-21T14:57:11;30.00;58.50
23083;DHT22;11709;52.420;10.538;2022-08-21T15:01:15;30.10;59.80
23083;DHT22;11709;52.420;10.538;2022-08-21T15:05:20;30.40;59.30
23083;DHT22;11709;52.420;10.538;2022-08-21T15:09:22;30.50;57.30
23083;DHT22;11709;52.420;10.538;2022-08-21T15:13:25;31.20;56.70
23083;DHT22;11709;52.420;10.538;2022-08-21T15:17:28;31.20;55.80
23083;DHT22;11709;52.420;10.538;2022-08-21T15:21:31;31.30;55.40
23083;DHT22;11709;52.420;10.538;2022-08-21T15:25:34;31.60;54.60
23083;DHT22;11709;52.420;10.538;2022-08-21T15:29:37;31.50;54.50
23083;DHT22;11709;52.420;10.538;2022-08-21T15:33:40;31.10;55.30
23083;DHT22;11709;52.420;10.538;2022-08-21T15:37:42;30.50;56.40
23083;DHT22;11709;52.420;10.538;2022-08-21T15:41:45;30.60;55.70
23083;DHT22;11709;52.420;10.538;2022-08-21T15:45:48;31.20;55.30
23083;DHT22;11709;52.420;10.538;2022-08-21T15:49:51;30.70;55.60
23083;DHT22;11709;52.420;10.538;2022-08-21T15:53:53;30.10;56.70
23083;DHT22;11709;52.420;10.538;2022-08-21T15:57:55;29.80;57.50
23083;DHT22;11709;52.420;10.538;2022-08-21T16:01:58;29.90;58.00
23083;DHT22;11709;52.420;10.538;2022-08-21T16:06:01;29.50;58.60
23083;DHT22;11709;52.420;10.538;2022-08-21T16:10:04;29.40;58.70
23083;DHT22;11709;52.420;10.538;2022-08-21T16:14:06;29.20;59.10
23083;DHT22;11709;52.420;10.538;2022-08-21T16:18:10;28.90;60.00
23083;DHT22;11709;52.420;10.538;2022-08-21T16:22:12;28.80;59.60
23083;DHT22;11709;52.420;10.538;2022-08-21T16:26:16;28.70;60.10
23083;DHT22;11709;52.420;10.538;2022-08-21T16:30:19;28.70;60.40
23083;DHT22;11709;52.420;10.538;2022-08-21T16:34:22;28.60;60.40
23083;DHT22;11709;52.420;10.538;2022-08-21T16:38:26;28.50;60.00
23083;DHT22;11709;52.420;10.538;2022-08-21T16:42:29;28.60;60.20
23083;DHT22;11709;52.420;10.538;2022-08-21T16:46:34;28.50;60.30
23083;DHT22;11709;52.420;10.538;2022-08-21T16:50:37;27.90;60.80
23083;DHT22;11709;52.420;10.538;2022-08-21T16:54:39;27.90;61.30
23083;DHT22;11709;52.420;10.538;2022-08-21T16:58:46;27.80;62.50
23083;DHT22;11709;52.420;10.538;2022-08-21T17:02:52;27.80;61.50
23083;DHT22;11709;52.420;10.538;2022-08-21T17:06:56;27.40;62.20
23083;DHT22;11709;52.420;10.538;2022-08-21T17:10:59;27.20;63.00
23083;DHT22;11709;52.420;10.538;2022-08-21T17:15:06;26.90;63.50
23083;DHT22;11709;52.420;10.538;2022-08-21T17:19:08;26.60;65.20
23083;DHT22;11709;52.420;10.538;2022-08-21T17:23:11;26.40;66.50
23083;DHT22;11709;52.420;10.538;2022-08-21T17:27:13;26.30;67.50
23083;DHT22;11709;52.420;10.538;2022-08-21T17:31:16;26.20;68.40
23083;DHT22;11709;52.420;10.538;2022-08-21T17:35:18;26.10;69.10
23083;DHT22;11709;52.420;10.538;2022-08-21T17:39:21;26.10;69.50
23083;DHT22;11709;52.420;10.538;2022-08-21T17:43:24;25.90;70.40
23083;DHT22;11709;52.420;10.538;2022-08-21T17:47:27;25.60;72.10
23083;DHT22;11709;52.420;10.538;2022-08-21T17:51:30;25.40;74.20
23083;DHT22;11709;52.420;10.538;2022-08-21T17:55:33;25.30;77.60
23083;DHT22;11709;52.420;10.538;2022-08-21T17:59:35;25.20;80.90
23083;DHT22;11709;52.420;10.538;2022-08-21T18:03:38;25.00;82.90
23083;DHT22;11709;52.420;10.538;2022-08-21T18:07:41;24.70;87.70
23083;DHT22;11709;52.420;10.538;2022-08-21T18:11:45;24.50;90.40
23083;DHT22;11709;52.420;10.538;2022-08-21T18:15:49;24.20;92.40
23083;DHT22;11709;52.420;10.538;2022-08-21T18:19:52;24.10;94.30
23083;DHT22;11709;52.420;10.538;2022-08-21T18:23:55;23.90;98.40
23083;DHT22;11709;52.420;10.538;2022-08-21T18:28:00;23.70;97.90
23083;DHT22;11709;52.420;10.538;2022-08-21T18:32:04;23.50;99.90
23083;DHT22;11709;52.420;10.538;2022-08-21T18:36:07;23.30;99.90
23083;DHT22;11709;52.420;10.538;2022-08-21T18:40:10;23.10;99.90
23083;DHT22;11709;52.420;10.538;2022-08-21T18:44:14;22.90;99.90
23083;DHT22;11709;52.420;10.538;2022-08-21T18:48:17;22.70;99.90
23083;DHT22;11709;52.420;10.538;2022-08-21T18:52:21;22.60;99.90
23083;DHT22;11709;52.420;10.538;2022-08-21T18:56:23;22.40;99.90
23083;DHT22;11709;52.420;10.538;2022-08-21T19:00:29;22.30;99.90
23083;DHT22;11709;52.420;10.538;2022-08-21T19:04:31;22.20;99.90
23083;DHT22;11709;52.420;10.538;2022-08-21T19:08:34;21.90;99.90
23083;DHT22;11709;52.420;10.538;2022-08-21T19:12:37;21.80;99.90
23083;DHT22;11709;52.420;10.538;2022-08-21T19:16:41;21.70;99.90
23083;DHT22;11709;52.420;10.538;2022-08-21T19:20:44;21.50;99.90
23083;DHT22;11709;52.420;10.538;2022-08-21T19:24:46;21.40;99.90
23083;DHT22;11709;52.420;10.538;2022-08-21T19:28:52;21.30;99.90
23083;DHT22;11709;52.420;10.538;2022-08-21T19:32:54;21.20;99.90
23083;DHT22;11709;52.420;10.538;2022-08-21T19:36:57;21.20;99.90
23083;DHT22;11709;52.420;10.538;2022-08-21T19:41:01;21.00;99.90
23083;DHT22;11709;52.420;10.538;2022-08-21T19:45:05;20.90;99.90
23083;DHT22;11709;52.420;10.538;2022-08-21T19:49:11;20.80;99.90
23083;DHT22;11709;52.420;10.538;2022-08-21T19:53:14;20.60;99.90
23083;DHT22;11709;52.420;10.538;2022-08-21T19:57:16;20.50;99.90
23083;DHT22;11709;52.420;10.538;2022-08-21T20:01:21;20.30;99.90
23083;DHT22;11709;52.420;10.538;2022-08-21T20:05:25;20.10;99.90
23083;DHT22;11709;52.420;10.538;2022-08-21T20:09:28;19.90;99.90
23083;DHT22;11709;52.420;10.538;2022-08-21T20:13:31;19.80;99.90
23083;DHT22;11709;52.420;10.538;2022-08-21T20:17:34;19.60;99.90
23083;DHT22;11709;52.420;10.538;2022-08-21T20:21:39;19.50;99.90
23083;DHT22;11709;52.420;10.538;2022-08-21T20:25:41;19.50;99.90
23083;DHT22;11709;52.420;10.538;2022-08-21T20:29:44;19.40;99.90
23083;DHT22;11709;52.420;10.538;2022-08-21T20:33:47;19.30;99.90
23083;DHT22;11709;52.420;10.538;2022-08-21T20:37:50;19.10;99.90
23083;DHT22;11709;52.420;10.538;2022-08-21T20:41:53;19.00;99.90
23083;DHT22;11709;52.420;10.538;2022-08-21T20:45:55;18.90;99.90
23083;DHT22;11709;52.420;10.538;2022-08-21T20:50:03;18.80;99.90
23083;DHT22;11709;52.420;10.538;2022-08-21T20:58:27;18.60;99.90
23083;DHT22;11709;52.420;10.538;2022-08-21T21:03:03;18.50;99.90
23083;DHT22;11709;52.420;10.538;2022-08-21T21:07:02;18.40;99.90
23083;DHT22;11709;52.420;10.538;2022-08-21T21:15:22;18.30;99.90
23083;DHT22;11709;52.420;10.538;2022-08-21T21:19:51;18.30;99.90
23083;DHT22;11709;52.420;10.538;2022-08-21T21:24:02;18.30;99.90
23083;DHT22;11709;52.420;10.538;2022-08-21T21:28:10;18.20;99.90
23083;DHT22;11709;52.420;10.538;2022-08-21T21:32:13;18.20;99.90
23083;DHT22;11709;52.420;10.538;2022-08-21T21:40:34;18.10;99.90
23083;DHT22;11709;52.420;10.538;2022-08-21T21:49:13;18.10;99.90
23083;DHT22;11709;52.420;10.538;2022-08-21T21:53:29;17.90;99.90
23083;DHT22;11709;52.420;10.538;2022-08-21T21:57:56;17.80;99.90
23083;DHT22;11709;52.420;10.538;2022-08-21T22:06:55;17.40;99.90
23083;DHT22;11709;52.420;10.538;2022-08-21T22:15:13;17.30;99.90
23083;DHT22;11709;52.420;10.538;2022-08-21T22:23:29;17.20;99.90
23083;DHT22;11709;52.420;10.538;2022-08-21T22:27:32;17.10;99.90
23083;DHT22;11709;52.420;10.538;2022-08-21T22:31:36;16.90;99.90
23083;DHT22;11709;52.420;10.538;2022-08-21T22:35:38;16.80;99.90
23083;DHT22;11709;52.420;10.538;2022-08-21T22:39:43;16.70;99.90
23083;DHT22;11709;52.420;10.538;2022-08-21T22:44:02;16.60;99.90
23083;DHT22;11709;52.420;10.538;2022-08-21T22:48:05;16.70;99.90
23083;DHT22;11709;52.420;10.538;2022-08-21T22:52:37;16.60;99.90
23083;DHT22;11709;52.420;10.538;2022-08-21T22:56:43;16.50;99.90
23083;DHT22;11709;52.420;10.538;2022-08-21T23:04:50;16.50;99.90
23083;DHT22;11709;52.420;10.538;2022-08-21T23:08:55;16.40;99.90
23083;DHT22;11709;52.420;10.538;2022-08-21T23:13:12;16.30;99.90
23083;DHT22;11709;52.420;10.538;2022-08-21T23:17:17;16.20;99.90
23083;DHT22;11709;52.420;10.538;2022-08-21T23:25:53;15.90;99.90
23083;DHT22;11709;52.420;10.538;2022-08-21T23:30:09;15.80;99.90
23083;DHT22;11709;52.420;10.538;2022-08-21T23:34:28;15.60;99.90
23083;DHT22;11709;52.420;10.538;2022-08-21T23:38:52;15.50;99.90
23083;DHT22;11709;52.420;10.538;2022-08-21T23:47:29;15.30;99.90
23083;DHT22;11709;52.420;10.538;2022-08-21T23:51:40;15.30;99.90
